Terminal Aerodrome Forecast
Issued by NWS Charleston, WV

Current Version | Previous Version | Text Only | Print | Product List | Glossary Off
Versions: 1 2 3 4 5 6 7 8 9 10 11 12 13 14 15 16 17 18 19 20 21 22 23 24

000
FTUS41 KRLX 150500
TAFHTS
TAF
KHTS 150524Z 1506/1606 VRB03KT 6SM BR SCT250
      TEMPO 1506/1509 3SM BR
     FM150900 00000KT 1/2SM FG VV001
      TEMPO 1509/1512 1SM BR SCT001
     FM151300 00000KT 3SM BR SCT200
     FM151400 00000KT 6SM BR FEW090
     FM151500 VRB03KT P6SM SCT035=

USA.gov is the U.S. government's official web portal to all federal, state and local government web resources and services.